Time;durP1;ratioP1;P1;durP2;ratioP2;P2;SDS_P1;SDS_P2;PMS_P1;PMS_P2;Temp;Humidity;BMP_temperature;BMP_pressure;BME280_temperature;BME280_humidity;BME280_pressure;Samples;Min_cycle;Max_cycle;Signal;HPM_P1;HPM_P2
2022/04/08 00:00:20;;;;;;;1.33;0.70;;;11.50;99.90;;;;;;5053124;28;20117;-70
2022/04/08 00:02:46;;;;;;;0.40;0.30;;;11.60;99.90;;;;;;5053059;28;20412;-69
2022/04/08 00:05:12;;;;;;;4.65;1.50;;;11.50;99.90;;;;;;5053007;28;20045;-69
2022/04/08 00:07:38;;;;;;;21.83;6.63;;;11.50;99.90;;;;;;5052976;28;20124;-70
2022/04/08 00:10:04;;;;;;;4.15;1.00;;;11.50;99.90;;;;;;5053100;28;20124;-69
2022/04/08 00:12:30;;;;;;;0.90;0.50;;;11.50;99.90;;;;;;5053319;28;20081;-69
2022/04/08 00:14:58;;;;;;;59.85;18.92;;;11.50;99.90;;;;;;5035081;28;20052;-69
2022/04/08 00:17:23;;;;;;;10.93;3.50;;;11.50;99.90;;;;;;5052808;28;20393;-69
2022/04/08 00:19:49;;;;;;;2.58;0.80;;;11.50;99.90;;;;;;5052890;28;20102;-70
2022/04/08 00:22:17;;;;;;;15.90;5.22;;;11.50;99.90;;;;;;5052737;28;20040;-69
2022/04/08 00:24:43;;;;;;;47.03;12.15;;;11.50;99.90;;;;;;5052808;28;20044;-69
2022/04/08 00:27:09;;;;;;;27.38;7.38;;;11.40;99.90;;;;;;5052962;28;20041;-69
2022/04/08 00:29:35;;;;;;;12.32;3.42;;;11.40;99.90;;;;;;5037892;28;20532;-68
2022/04/08 00:32:01;;;;;;;3.17;0.90;;;11.30;99.90;;;;;;5032982;28;20033;-69
2022/04/08 00:34:27;;;;;;;2.10;0.40;;;11.30;99.90;;;;;;5032980;28;20211;-69
2022/04/08 00:36:54;;;;;;;1.23;0.60;;;11.40;99.90;;;;;;5032946;28;20049;-69
2022/04/08 00:39:24;;;;;;;6.10;1.50;;;11.40;99.90;;;;;;5032937;28;20041;-70
2022/04/08 00:41:50;;;;;;;12.77;3.67;;;11.40;99.90;;;;;;5032785;28;20033;-69
2022/04/08 00:44:17;;;;;;;33.47;9.65;;;11.40;99.90;;;;;;5052426;28;20033;-69
2022/04/08 00:46:43;;;;;;;44.45;13.43;;;11.40;99.90;;;;;;5052622;28;20127;-69
2022/04/08 00:49:10;;;;;;;35.85;11.75;;;11.40;99.90;;;;;;5052607;28;20048;-69
2022/04/08 00:51:35;;;;;;;23.85;7.63;;;11.30;99.90;;;;;;5052475;28;20492;-69
2022/04/08 00:54:03;;;;;;;37.97;13.05;;;11.30;99.90;;;;;;5052475;28;20037;-69
2022/04/08 00:56:30;;;;;;;10.40;3.95;;;11.30;99.90;;;;;;5052301;28;20124;-69
2022/04/08 00:58:57;;;;;;;33.53;12.05;;;11.20;99.90;;;;;;5052366;28;20103;-69
2022/04/08 01:01:26;;;;;;;21.25;8.82;;;11.20;99.90;;;;;;5052578;28;20108;-70
2022/04/08 01:03:52;;;;;;;15.32;5.75;;;11.20;99.90;;;;;;5053806;28;20051;-69
2022/04/08 01:06:22;;;;;;;2.45;1.00;;;11.10;99.90;;;;;;5056436;28;20120;-69
2022/04/08 01:08:49;;;;;;;15.77;5.13;;;11.00;99.90;;;;;;5056437;28;20519;-70
2022/04/08 01:11:16;;;;;;;2.90;0.88;;;11.00;99.90;;;;;;5056575;28;20424;-69
2022/04/08 01:13:42;;;;;;;12.23;4.65;;;10.90;99.90;;;;;;5056468;28;20072;-70
2022/04/08 01:16:08;;;;;;;15.00;5.97;;;10.80;99.90;;;;;;5056427;28;20048;-69
2022/04/08 01:18:35;;;;;;;8.80;3.53;;;10.80;99.90;;;;;;5056320;28;20060;-70
2022/04/08 01:21:05;;;;;;;13.40;4.90;;;10.80;99.90;;;;;;5056262;28;20554;-70
2022/04/08 01:23:35;;;;;;;7.00;2.95;;;10.80;99.90;;;;;;5056243;28;20106;-69
2022/04/08 01:26:07;;;;;;;;;;;10.80;99.90;;;;;;5056583;28;20067;-69
2022/04/08 01:28:35;;;;;;;11.57;5.50;;;10.80;99.90;;;;;;5056032;28;20011;-70
2022/04/08 01:31:01;;;;;;;11.95;6.38;;;10.80;99.90;;;;;;5055939;28;20052;-70
2022/04/08 01:33:27;;;;;;;9.32;4.78;;;10.70;99.90;;;;;;5055917;28;20040;-69
2022/04/08 01:35:52;;;;;;;4.70;2.67;;;10.70;99.90;;;;;;5056034;28;20045;-69
2022/04/08 01:38:18;;;;;;;0.85;0.52;;;10.70;99.90;;;;;;5056011;28;20052;-70
2022/04/08 01:40:44;;;;;;;1.13;0.70;;;10.60;99.90;;;;;;5055961;28;20040;-69
2022/04/08 01:43:10;;;;;;;6.00;1.88;;;10.50;99.90;;;;;;5056028;28;20044;-70
2022/04/08 01:45:36;;;;;;;0.73;0.68;;;10.50;99.90;;;;;;5055805;28;20051;-69
2022/04/08 01:48:03;;;;;;;1.45;0.50;;;10.60;99.90;;;;;;5055694;28;20047;-70
2022/04/08 01:50:29;;;;;;;2.25;1.15;;;10.50;99.90;;;;;;5055755;28;20041;-69
2022/04/08 01:52:55;;;;;;;1.50;0.82;;;10.50;99.90;;;;;;5055754;28;20053;-69
2022/04/08 01:55:21;;;;;;;1.23;0.40;;;10.50;99.90;;;;;;5055652;28;20532;-69
2022/04/08 01:57:46;;;;;;;2.28;1.20;;;10.50;99.90;;;;;;5055620;28;20107;-69
2022/04/08 02:00:13;;;;;;;4.03;0.90;;;10.40;99.90;;;;;;5055627;28;20032;-69
2022/04/08 02:02:39;;;;;;;3.10;0.50;;;10.40;99.90;;;;;;5055578;28;20039;-70
2022/04/08 02:05:06;;;;;;;1.33;0.95;;;10.40;99.90;;;;;;5055471;28;20037;-69
2022/04/08 02:07:31;;;;;;;1.45;0.80;;;10.40;99.90;;;;;;5055245;28;20052;-70
2022/04/08 02:09:57;;;;;;;1.52;0.90;;;10.40;99.90;;;;;;5055043;28;20408;-70
2022/04/08 02:12:23;;;;;;;4.30;1.20;;;10.40;99.90;;;;;;5055129;28;20386;-70
2022/04/08 02:14:49;;;;;;;0.55;0.40;;;10.40;99.90;;;;;;5054861;28;20082;-70
2022/04/08 02:17:15;;;;;;;1.55;0.82;;;10.40;99.90;;;;;;5055488;28;20040;-70
2022/04/08 02:19:41;;;;;;;0.80;0.35;;;10.40;99.90;;;;;;5055198;28;20044;-70
2022/04/08 02:22:07;;;;;;;0.95;0.63;;;10.40;99.90;;;;;;5046342;28;20044;-70
2022/04/08 02:24:33;;;;;;;2.67;1.75;;;10.40;99.90;;;;;;5032372;28;20041;-69
2022/04/08 02:26:59;;;;;;;2.10;1.42;;;10.40;99.90;;;;;;5034081;28;20052;-70
2022/04/08 02:29:26;;;;;;;3.10;2.00;;;10.40;99.90;;;;;;5035003;28;20049;-70
2022/04/08 02:31:54;;;;;;;4.65;1.45;;;10.40;99.90;;;;;;5035143;28;20048;-70
2022/04/08 02:34:20;;;;;;;1.90;1.35;;;10.50;99.90;;;;;;5035144;28;20409;-70
2022/04/08 02:36:46;;;;;;;1.98;1.40;;;10.40;99.90;;;;;;5034619;28;20039;-70
2022/04/08 02:39:11;;;;;;;1.95;0.68;;;10.40;99.90;;;;;;5034566;28;20049;-70
2022/04/08 02:41:37;;;;;;;0.82;0.50;;;10.40;99.90;;;;;;5034672;28;20044;-69
2022/04/08 02:44:03;;;;;;;1.77;0.80;;;10.40;99.90;;;;;;5034611;28;20041;-69
2022/04/08 02:46:29;;;;;;;1.83;0.80;;;10.40;99.90;;;;;;5034685;28;20041;-70
2022/04/08 02:48:55;;;;;;;0.43;0.22;;;10.40;99.90;;;;;;5035648;28;20072;-70
2022/04/08 02:51:21;;;;;;;3.42;0.60;;;10.40;99.90;;;;;;5035886;28;20044;-70
2022/04/08 02:53:46;;;;;;;3.78;2.30;;;10.40;99.90;;;;;;5034711;28;20046;-70
2022/04/08 02:56:12;;;;;;;0.75;0.50;;;10.40;99.90;;;;;;5034638;28;20045;-71
2022/04/08 02:58:38;;;;;;;0.85;0.40;;;10.40;99.90;;;;;;5034553;28;20140;-70
2022/04/08 03:01:04;;;;;;;0.90;0.45;;;10.30;99.90;;;;;;5034422;28;20112;-69
2022/04/08 03:03:30;;;;;;;1.58;0.82;;;10.30;99.90;;;;;;5034337;28;20033;-70
2022/04/08 03:05:57;;;;;;;1.55;0.30;;;10.30;99.90;;;;;;5034304;28;20029;-70
2022/04/08 03:08:23;;;;;;;0.38;0.20;;;10.30;99.90;;;;;;5034119;28;20049;-69
2022/04/08 03:10:50;;;;;;;0.38;0.22;;;10.20;99.90;;;;;;5034472;28;20034;-71
2022/04/08 03:13:15;;;;;;;2.65;0.75;;;10.20;99.90;;;;;;5034316;28;20048;-70
2022/04/08 03:15:41;;;;;;;4.68;1.00;;;10.20;99.90;;;;;;5034238;28;20489;-70
2022/04/08 03:18:08;;;;;;;9.73;3.75;;;;;;;;;;5034098;28;20437;-70
2022/04/08 03:20:34;;;;;;;11.00;3.67;;;;;;;;;;5034162;28;20037;-70
2022/04/08 03:23:00;;;;;;;19.85;7.68;;;;;;;;;;5033916;28;20049;-69
2022/04/08 03:25:26;;;;;;;9.15;3.10;;;;;;;;;;5041112;28;20037;-70
2022/04/08 03:27:52;;;;;;;24.25;7.50;;;;;;;;;;5033383;28;20039;-71
2022/04/08 03:30:18;;;;;;;26.98;9.57;;;;;;;;;;5033800;28;20049;-69
2022/04/08 03:32:44;;;;;;;20.02;6.68;;;;;;;;;;5033567;28;20091;-69
2022/04/08 03:35:10;;;;;;;15.27;6.10;;;;;;;;;;5033755;28;20497;-70
2022/04/08 03:37:36;;;;;;;20.35;7.15;;;;;;;;;;5033709;28;20049;-70
2022/04/08 03:40:03;;;;;;;5.35;2.55;;;;;;;;;;5033781;28;20148;-71
2022/04/08 03:42:29;;;;;;;16.02;6.15;;;;;;;;;;5033625;28;20564;-71
2022/04/08 03:44:55;;;;;;;1.13;0.50;;;;;;;;;;5033658;28;20125;-71
2022/04/08 03:47:21;;;;;;;4.32;1.25;;;;;;;;;;5033594;28;20192;-70
2022/04/08 03:49:47;;;;;;;3.72;1.20;;;;;;;;;;5049491;28;20102;-69
2022/04/08 03:52:13;;;;;;;3.35;1.38;;;;;;;;;;5053441;28;20084;-70
2022/04/08 03:54:40;;;;;;;5.40;1.95;;;;;;;;;;5053724;28;20040;-71
2022/04/08 03:57:06;;;;;;;5.43;2.05;;;;;;;;;;5053090;28;20051;-71
2022/04/08 03:59:32;;;;;;;6.93;3.08;;;;;;;;;;5053315;28;20518;-70
2022/04/08 04:02:01;;;;;;;3.72;1.92;;;;;;;;;;5053380;28;20051;-70
2022/04/08 04:04:27;;;;;;;2.25;0.50;;;;;;;;;;5053252;28;20044;-70
2022/04/08 04:06:53;;;;;;;1.20;0.52;;;;;;;;;;5052837;28;20049;-69
2022/04/08 04:09:19;;;;;;;1.10;0.70;;;;;;;;;;5052808;28;20378;-70
2022/04/08 04:11:45;;;;;;;2.92;1.38;;;;;;;;;;5052952;28;20053;-70
2022/04/08 04:14:11;;;;;;;4.47;1.90;;;;;;;;;;5052911;28;20554;-68
2022/04/08 04:16:38;;;;;;;1.88;1.20;;;;;;;;;;5053079;28;20045;-68
2022/04/08 04:19:04;;;;;;;3.20;1.73;;;;;;;;;;5053227;28;20048;-71
2022/04/08 04:21:30;;;;;;;2.35;0.95;;;;;;;;;;5053008;28;20068;-71
2022/04/08 04:23:56;;;;;;;0.30;0.30;;;;;;;;;;5052668;28;20523;-70
2022/04/08 04:26:22;;;;;;;1.25;0.32;;;;;;;;;;5052987;28;20114;-70
2022/04/08 04:28:48;;;;;;;1.95;0.40;;;;;;;;;;5053063;28;20051;-70
2022/04/08 04:31:14;;;;;;;3.22;0.50;;;10.20;99.90;;;;;;5052833;28;20069;-71
2022/04/08 04:33:40;;;;;;;1.13;0.50;;;;;;;;;;5052729;28;20115;-69
2022/04/08 04:36:06;;;;;;;1.55;0.60;;;;;;;;;;5052836;28;20049;-70
2022/04/08 04:38:32;;;;;;;1.20;0.50;;;;;;;;;;5052695;28;20131;-70
2022/04/08 04:40:58;;;;;;;2.08;0.70;;;;;;;;;;5052731;28;20040;-70
2022/04/08 04:43:24;;;;;;;1.60;0.80;;;;;;;;;;5052736;28;20531;-70
2022/04/08 04:45:50;;;;;;;1.73;1.15;;;;;;;;;;5052773;28;20040;-69
2022/04/08 04:48:18;;;;;;;1.38;0.85;;;;;;;;;;5052808;28;20591;-69
2022/04/08 04:50:46;;;;;;;0.75;0.50;;;;;;;;;;5052728;28;20041;-71
2022/04/08 04:53:13;;;;;;;2.13;0.57;;;;;;;;;;5052802;28;20480;-70
2022/04/08 04:55:39;;;;;;;3.92;0.60;;;;;;;;;;5052730;28;20470;-70
2022/04/08 04:58:05;;;;;;;1.88;0.57;;;;;;;;;;5052564;28;20516;-70
2022/04/08 05:00:31;;;;;;;3.75;0.70;;;;;;;;;;5052732;28;20048;-70
2022/04/08 05:02:57;;;;;;;2.53;0.50;;;;;;;;;;5052635;28;20095;-70
2022/04/08 05:05:23;;;;;;;2.80;0.77;;;;;;;;;;5052524;28;20037;-70
2022/04/08 05:07:49;;;;;;;0.90;0.35;;;;;;;;;;5052361;28;20055;-70
2022/04/08 05:10:15;;;;;;;4.07;0.47;;;;;;;;;;5051323;28;20410;-70
2022/04/08 05:12:41;;;;;;;0.70;0.35;;;;;;;;;;5032604;28;20099;-70
2022/04/08 05:15:09;;;;;;;2.00;0.65;;;10.10;99.90;;;;;;5032911;28;20481;-70
2022/04/08 05:17:36;;;;;;;2.67;0.40;;;10.30;99.90;;;;;;5032039;28;20057;-71
2022/04/08 05:20:05;;;;;;;3.67;1.08;;;;;;;;;;5032311;28;20037;-70
2022/04/08 05:22:32;;;;;;;1.30;0.70;;;10.00;99.90;;;;;;5014590;28;20421;-69
2022/04/08 05:24:59;;;;;;;3.30;0.90;;;10.00;99.90;;;;;;5032438;28;20059;-70
2022/04/08 05:27:26;;;;;;;1.42;0.65;;;9.90;99.90;;;;;;5032474;28;20038;-70
2022/04/08 05:29:52;;;;;;;0.98;0.65;;;;;;;;;;5032521;28;20051;-70
2022/04/08 05:32:18;;;;;;;1.65;0.90;;;;;;;;;;5031547;28;20073;-68
2022/04/08 05:36:30;;;;;;;1.20;0.88;;;10.00;99.90;;;;;;5106828;27;20127;-70
2022/04/08 05:38:56;;;;;;;1.33;0.60;;;10.00;99.90;;;;;;5108350;28;20048;-70
2022/04/08 05:41:22;;;;;;;4.32;1.00;;;9.90;99.90;;;;;;5082582;28;20040;-69
2022/04/08 05:43:48;;;;;;;2.65;1.13;;;9.90;99.90;;;;;;5069870;28;20040;-70
2022/04/08 05:46:14;;;;;;;2.03;1.30;;;10.00;99.90;;;;;;5068684;28;20098;-70
2022/04/08 05:48:40;;;;;;;1.50;0.85;;;9.90;99.90;;;;;;5074376;28;20036;-70
2022/04/08 05:51:06;;;;;;;1.38;0.90;;;9.90;99.90;;;;;;5089116;28;20373;-70
2022/04/08 05:53:32;;;;;;;1.38;0.80;;;10.00;99.90;;;;;;5090234;28;20040;-70
2022/04/08 05:55:59;;;;;;;4.43;0.70;;;9.90;99.90;;;;;;5090082;28;20097;-71
2022/04/08 05:58:26;;;;;;;1.42;0.50;;;9.90;99.90;;;;;;5090086;28;20065;-69
2022/04/08 06:00:52;;;;;;;1.08;0.60;;;10.00;99.90;;;;;;5088332;28;20558;-70
2022/04/08 06:03:18;;;;;;;1.70;0.93;;;10.10;99.90;;;;;;5089646;28;20036;-69
2022/04/08 06:05:44;;;;;;;0.75;0.60;;;10.10;99.90;;;;;;5088018;28;20048;-68
2022/04/08 06:08:10;;;;;;;1.20;0.63;;;10.10;99.90;;;;;;5074228;28;20075;-71
2022/04/08 06:10:36;;;;;;;1.50;0.70;;;10.10;99.90;;;;;;5074152;28;20523;-70
2022/04/08 06:13:03;;;;;;;3.05;1.73;;;10.10;99.90;;;;;;5085838;28;20170;-69
2022/04/08 06:15:31;;;;;;;2.53;1.42;;;10.10;99.90;;;;;;5086704;28;20048;-69
2022/04/08 06:17:57;;;;;;;2.45;1.58;;;10.20;99.90;;;;;;5086014;28;20043;-71
2022/04/08 06:20:24;;;;;;;6.35;4.30;;;10.20;99.90;;;;;;5085096;28;20048;-68
2022/04/08 06:22:50;;;;;;;16.88;11.02;;;10.40;99.90;;;;;;5081465;28;20052;-70
2022/04/08 06:25:20;;;;;;;14.07;9.77;;;10.50;99.90;;;;;;5087472;28;20547;-70
2022/04/08 06:28:04;;;;;;;15.13;10.50;;;10.60;99.90;;;;;;5076598;28;20044;-69
2022/04/08 06:30:38;;;;;;;13.70;9.18;;;10.70;99.90;;;;;;5072064;28;20175;-70
2022/04/08 06:33:05;;;;;;;10.40;6.95;;;10.90;99.90;;;;;;5068915;28;20403;-70
2022/04/08 06:35:32;;;;;;;9.27;7.25;;;11.10;99.90;;;;;;5066456;28;20147;-69
2022/04/08 06:38:02;;;;;;;4.70;2.92;;;11.30;99.90;;;;;;5066954;28;20079;-69
2022/04/08 06:40:28;;;;;;;1.38;1.27;;;11.30;99.90;;;;;;5067191;28;20044;-70
2022/04/08 06:42:57;;;;;;;2.95;0.90;;;11.40;99.90;;;;;;5067202;28;20033;-70
2022/04/08 06:45:23;;;;;;;2.17;1.10;;;11.40;99.90;;;;;;5066903;28;20040;-71
2022/04/08 06:47:49;;;;;;;1.15;0.70;;;11.40;99.90;;;;;;5053753;28;20037;-71
2022/04/08 06:50:16;;;;;;;1.45;0.80;;;11.40;99.90;;;;;;5053344;28;20044;-70
2022/04/08 06:52:42;;;;;;;1.65;0.85;;;11.40;99.90;;;;;;5053130;28;20107;-70
2022/04/08 06:55:09;;;;;;;1.42;0.82;;;11.50;99.90;;;;;;5052761;28;20045;-69
2022/04/08 06:57:35;;;;;;;3.13;1.88;;;11.60;99.90;;;;;;5052541;28;20040;-70
2022/04/08 07:00:06;;;;;;;6.07;5.18;;;11.70;99.90;;;;;;5052913;28;20531;-70
2022/04/08 07:02:32;;;;;;;0.98;0.80;;;11.70;99.90;;;;;;5062600;28;20047;-70
2022/04/08 07:04:58;;;;;;;1.77;1.27;;;11.70;99.90;;;;;;5074303;28;20028;-70
2022/04/08 07:07:28;;;;;;;5.43;1.00;;;11.90;99.90;;;;;;5073521;28;20041;-70
2022/04/08 07:09:55;;;;;;;1.10;0.80;;;12.00;99.90;;;;;;5073314;28;20040;-71
2022/04/08 07:12:20;;;;;;;1.90;1.50;;;12.20;99.90;;;;;;5071889;28;20495;-70
2022/04/08 07:14:47;;;;;;;1.33;1.20;;;12.10;99.90;;;;;;5072957;28;20068;-70
2022/04/08 07:17:13;;;;;;;4.32;0.88;;;12.10;99.90;;;;;;5072826;28;20036;-69
2022/04/08 07:19:38;;;;;;;1.10;0.70;;;12.00;99.90;;;;;;5072478;28;20259;-70
2022/04/08 07:22:04;;;;;;;1.20;0.90;;;12.00;99.90;;;;;;5071194;28;20044;-70
2022/04/08 07:24:30;;;;;;;1.27;1.17;;;11.90;99.90;;;;;;5073315;28;20047;-70
2022/04/08 07:26:56;;;;;;;2.15;0.63;;;11.80;99.90;;;;;;5072537;28;20068;-70
2022/04/08 07:29:22;;;;;;;3.90;0.65;;;11.80;99.90;;;;;;5072908;28;20036;-70
2022/04/08 07:31:48;;;;;;;2.15;0.70;;;11.80;99.90;;;;;;5073255;28;20388;-70
2022/04/08 07:34:13;;;;;;;3.75;0.80;;;11.80;99.90;;;;;;5073152;28;20032;-70
2022/04/08 07:36:39;;;;;;;0.85;0.60;;;11.80;99.90;;;;;;5074422;28;20078;-70
2022/04/08 07:39:05;;;;;;;2.13;1.08;;;11.80;99.90;;;;;;5072276;28;20032;-70
2022/04/08 07:41:31;;;;;;;2.42;1.52;;;11.80;99.90;;;;;;5072384;28;20042;-70
2022/04/08 07:43:57;;;;;;;2.30;0.75;;;11.80;99.90;;;;;;5073067;28;20033;-70
2022/04/08 07:46:23;;;;;;;1.08;0.65;;;11.80;99.90;;;;;;5071846;28;20116;-70
2022/04/08 07:48:48;;;;;;;0.95;0.40;;;11.90;99.90;;;;;;5072870;28;20094;-69
2022/04/08 07:51:14;;;;;;;3.65;0.70;;;11.90;99.90;;;;;;5073568;28;20102;-70
2022/04/08 07:53:40;;;;;;;0.65;0.50;;;11.90;99.90;;;;;;5072377;28;20599;-70
2022/04/08 07:56:06;;;;;;;2.08;0.70;;;11.90;99.90;;;;;;5071232;28;20434;-70
2022/04/08 07:58:31;;;;;;;0.82;0.50;;;11.90;99.90;;;;;;5059294;28;20037;-69
2022/04/08 08:00:58;;;;;;;0.40;0.30;;;12.10;99.90;;;;;;5060127;28;20040;-69
2022/04/08 08:03:23;;;;;;;0.68;0.30;;;12.10;99.90;;;;;;5072659;28;20049;-69
2022/04/08 08:05:51;;;;;;;0.30;0.30;;;12.20;99.90;;;;;;5052177;28;20512;-69
2022/04/08 08:08:18;;;;;;;0.63;0.57;;;12.20;99.90;;;;;;5051778;28;20033;-69
2022/04/08 08:10:44;;;;;;;1.98;1.77;;;12.20;99.90;;;;;;5052493;28;20049;-69
2022/04/08 08:13:10;;;;;;;1.52;0.50;;;12.20;99.90;;;;;;5054046;28;20036;-69
2022/04/08 08:15:36;;;;;;;1.00;0.60;;;12.20;99.90;;;;;;5053910;28;20052;-70
2022/04/08 08:18:03;;;;;;;0.40;0.32;;;12.10;99.90;;;;;;5052028;28;20122;-69
2022/04/08 08:20:29;;;;;;;0.95;0.35;;;12.00;99.90;;;;;;5052479;28;20513;-70
2022/04/08 08:22:55;;;;;;;0.77;0.55;;;11.90;99.90;;;;;;5052199;28;20044;-70
2022/04/08 08:25:21;;;;;;;0.50;0.40;;;12.00;99.90;;;;;;5056402;28;20036;-70
2022/04/08 08:27:54;;;;;;;5.68;4.55;;;12.20;99.90;;;;;;5071197;28;20040;-70
2022/04/08 08:30:20;;;;;;;18.50;13.23;;;12.60;99.90;;;;;;5071229;28;20039;-70
2022/04/08 08:32:47;;;;;;;12.68;10.48;;;13.20;99.90;;;;;;5071950;28;20040;-70
2022/04/08 08:35:17;;;;;;;4.32;3.22;;;13.60;99.90;;;;;;5071668;28;20499;-70
2022/04/08 08:37:43;;;;;;;8.93;6.80;;;13.80;99.90;;;;;;5071766;28;20447;-70
2022/04/08 08:40:11;;;;;;;4.55;3.30;;;14.30;99.90;;;;;;5071495;28;20492;-70
2022/04/08 08:42:38;;;;;;;5.32;4.47;;;14.30;99.90;;;;;;5070268;28;20040;-70
2022/04/08 08:45:05;;;;;;;4.60;3.65;;;14.30;99.90;;;;;;5071021;28;20042;-71
2022/04/08 08:47:32;;;;;;;9.35;5.72;;;13.80;99.90;;;;;;5071357;28;20131;-70
2022/04/08 08:49:59;;;;;;;0.65;0.40;;;13.70;99.90;;;;;;5071601;28;20033;-70
2022/04/08 08:52:25;;;;;;;0.50;0.40;;;13.60;99.90;;;;;;5073003;28;20064;-70
2022/04/08 08:54:52;;;;;;;8.73;6.22;;;13.50;99.90;;;;;;5072907;28;20076;-70
2022/04/08 08:57:19;;;;;;;2.47;1.25;;;13.60;99.90;;;;;;5072186;28;20044;-70
2022/04/08 08:59:46;;;;;;;6.43;1.63;;;13.60;99.90;;;;;;5070916;28;20048;-70
2022/04/08 09:02:17;;;;;;;6.47;3.47;;;13.70;99.90;;;;;;5071039;28;20044;-70
2022/04/08 09:04:44;;;;;;;6.65;3.28;;;13.90;99.90;;;;;;5070256;28;20032;-69
2022/04/08 09:07:29;;;;;;;0.63;0.45;;;13.90;99.90;;;;;;5065011;28;20060;-69
2022/04/08 09:09:57;;;;;;;0.85;0.68;;;14.00;99.90;;;;;;5051966;28;20044;-69
2022/04/08 09:12:25;;;;;;;1.13;0.40;;;14.10;99.90;;;;;;5051890;28;20044;-69
2022/04/08 09:14:52;;;;;;;1.85;1.30;;;14.20;99.90;;;;;;5057213;28;20101;-70
2022/04/08 09:17:20;;;;;;;1.35;0.50;;;14.10;99.90;;;;;;5061381;28;20044;-69
2022/04/08 09:19:53;;;;;;;0.52;0.20;;;14.20;99.90;;;;;;5051014;28;20036;-69
2022/04/08 09:22:20;;;;;;;1.02;0.63;;;14.20;99.90;;;;;;5050852;28;20346;-69
2022/04/08 09:24:46;;;;;;;7.45;5.40;;;14.20;99.90;;;;;;5050943;28;20044;-70
2022/04/08 09:27:12;;;;;;;2.00;1.17;;;14.20;99.90;;;;;;5050812;28;20124;-70
2022/04/08 09:29:43;;;;;;;1.30;0.73;;;14.20;99.90;;;;;;5052473;28;20484;-70
2022/04/08 09:32:10;;;;;;;2.83;0.52;;;14.20;99.90;;;;;;5050669;28;20060;-70
2022/04/08 09:34:37;;;;;;;1.00;0.47;;;14.20;99.90;;;;;;5056788;28;20052;-70
2022/04/08 09:37:21;;;;;;;0.20;0.13;;;14.20;99.90;;;;;;5070645;28;20126;-70
2022/04/08 09:39:57;;;;;;;1.67;0.30;;;14.20;99.90;;;;;;5070309;28;20060;-70
2022/04/08 09:42:42;;;;;;;0.50;0.50;;;14.30;99.90;;;;;;5070203;28;20048;-70
2022/04/08 09:45:09;;;;;;;1.15;0.75;;;14.30;99.90;;;;;;5070416;28;20044;-70
2022/04/08 09:47:35;;;;;;;1.58;0.50;;;14.40;99.90;;;;;;5070840;28;20068;-70
2022/04/08 09:50:01;;;;;;;2.15;0.60;;;14.50;99.90;;;;;;5070460;28;20075;-70
2022/04/08 09:52:27;;;;;;;19.40;11.25;;;14.50;99.90;;;;;;5069884;28;20040;-71
2022/04/08 09:54:55;;;;;;;2.20;1.58;;;14.90;99.90;;;;;;5070821;28;20059;-69
2022/04/08 09:57:21;;;;;;;4.82;1.10;;;14.90;99.90;;;;;;5070154;28;20036;-69
2022/04/08 09:59:50;;;;;;;4.93;0.77;;;15.20;99.90;;;;;;5070575;28;20043;-70
2022/04/08 10:02:18;;;;;;;2.97;0.55;;;15.40;99.90;;;;;;5070739;28;20082;-69
2022/04/08 10:04:45;;;;;;;3.95;0.63;;;15.30;99.90;;;;;;5070110;28;20535;-69
2022/04/08 10:07:11;;;;;;;1.88;0.57;;;15.30;99.90;;;;;;5069926;28;20040;-70
2022/04/08 10:10:12;;;;;;;4.80;0.73;;;15.10;99.90;;;;;;5070005;28;20499;-70
2022/04/08 10:12:42;;;;;;;6.00;0.82;;;15.00;99.90;;;;;;5054656;28;20105;-69
2022/04/08 10:15:19;;;;;;;3.72;1.00;;;14.70;99.90;;;;;;5072422;28;20048;-69
2022/04/08 10:17:58;;;;;;;4.07;0.90;;;14.60;99.90;;;;;;5072280;28;20044;-69
2022/04/08 10:20:27;;;;;;;2.33;0.75;;;14.40;99.90;;;;;;5071790;28;20071;-70
2022/04/08 10:23:10;;;;;;;1.38;0.77;;;14.40;99.90;;;;;;5074251;28;20032;-69
2022/04/08 10:25:41;;;;;;;5.30;1.05;;;14.30;99.90;;;;;;5069572;28;20074;-71
2022/04/08 10:28:10;;;;;;;7.07;1.00;;;14.30;99.90;;;;;;5062927;28;20044;-71
2022/04/08 10:30:44;;;;;;;4.03;1.20;;;14.30;99.90;;;;;;5063271;28;20040;-70
2022/04/08 10:33:12;;;;;;;1.27;1.05;;;14.30;99.90;;;;;;5060791;28;20489;-70
2022/04/08 10:35:38;;;;;;;6.47;1.85;;;14.30;99.90;;;;;;5073313;28;20589;-70
2022/04/08 10:38:06;;;;;;;3.67;1.20;;;14.40;99.90;;;;;;5073804;28;20443;-69
2022/04/08 10:40:38;;;;;;;4.18;1.05;;;14.40;99.90;;;;;;5064173;28;20048;-70
2022/04/08 10:43:07;;;;;;;3.45;1.13;;;14.40;99.90;;;;;;5053533;28;20159;-70
2022/04/08 10:45:34;;;;;;;7.55;3.33;;;14.30;99.90;;;;;;5053687;28;20040;-70
2022/04/08 10:48:09;;;;;;;4.75;1.13;;;14.30;99.90;;;;;;5053663;28;20041;-70
2022/04/08 10:50:37;;;;;;;2.45;1.27;;;14.30;99.90;;;;;;5055659;28;20412;-70
2022/04/08 10:53:13;;;;;;;2.15;1.40;;;14.30;99.90;;;;;;5057400;28;20025;-70
2022/04/08 10:55:45;;;;;;;2.50;1.80;;;14.30;99.90;;;;;;5061608;28;20053;-69
2022/04/08 10:58:11;;;;;;;2.42;0.90;;;14.40;99.90;;;;;;5052814;28;20045;-70
2022/04/08 11:00:40;;;;;;;3.25;1.23;;;14.30;99.90;;;;;;5053142;28;20393;-69
2022/04/08 11:03:10;;;;;;;5.75;1.17;;;14.40;99.90;;;;;;5054545;28;20041;-69
2022/04/08 11:05:39;;;;;;;3.40;1.00;;;14.30;99.90;;;;;;5053059;28;20033;-70
2022/04/08 11:08:06;;;;;;;4.53;1.20;;;14.30;99.90;;;;;;5052912;28;20044;-70
2022/04/08 11:10:32;;;;;;;2.50;1.00;;;14.40;99.90;;;;;;5053410;28;20048;-69
2022/04/08 11:13:01;;;;;;;5.18;1.30;;;14.40;99.90;;;;;;5053579;28;20432;-69
2022/04/08 11:15:28;;;;;;;3.60;0.90;;;14.40;99.90;;;;;;5052580;28;20091;-69
2022/04/08 11:17:54;;;;;;;2.33;1.27;;;14.50;99.90;;;;;;5054784;28;20048;-69
2022/04/08 11:20:22;;;;;;;2.28;1.58;;;14.50;99.90;;;;;;5053260;28;20078;-69
2022/04/08 11:22:53;;;;;;;5.60;1.80;;;14.50;99.90;;;;;;5053152;28;20044;-69
2022/04/08 11:25:21;;;;;;;3.53;1.15;;;14.60;99.90;;;;;;5054959;28;20119;-69
2022/04/08 11:27:59;;;;;;;4.57;2.60;;;14.60;99.90;;;;;;5054653;28;20037;-69
2022/04/08 11:30:25;;;;;;;2.25;1.05;;;14.70;99.90;;;;;;5052665;28;20132;-69
2022/04/08 11:32:51;;;;;;;8.02;3.25;;;14.70;99.90;;;;;;5052486;28;20132;-69
2022/04/08 11:35:17;;;;;;;3.50;1.27;;;14.70;99.90;;;;;;5052723;28;20049;-69
2022/04/08 11:37:43;;;;;;;4.10;1.00;;;14.80;99.90;;;;;;5052999;28;20075;-69
2022/04/08 11:40:15;;;;;;;3.38;1.05;;;14.80;99.90;;;;;;5052646;28;20045;-69
2022/04/08 11:42:41;;;;;;;3.78;1.10;;;14.90;99.90;;;;;;5051521;28;20508;-69
2022/04/08 11:45:09;;;;;;;3.28;1.00;;;14.90;99.90;;;;;;5052444;28;20051;-69
2022/04/08 11:47:40;;;;;;;8.13;1.60;;;14.90;99.90;;;;;;5052597;28;20045;-69
2022/04/08 11:50:07;;;;;;;3.38;0.90;;;14.90;99.90;;;;;;5052314;28;20116;-69
2022/04/08 11:52:35;;;;;;;4.22;1.23;;;14.90;99.90;;;;;;5053835;28;20067;-69
2022/04/08 11:55:05;;;;;;;5.78;1.27;;;15.00;99.90;;;;;;5066076;28;20048;-69
2022/04/08 11:57:33;;;;;;;4.03;1.15;;;15.00;99.90;;;;;;5072542;28;20035;-69
2022/04/08 12:00:02;;;;;;;5.75;1.05;;;15.00;99.90;;;;;;5072526;28;20039;-69
2022/04/08 12:02:29;;;;;;;4.05;1.27;;;14.90;99.90;;;;;;5072350;28;20062;-69
2022/04/08 12:04:55;;;;;;;4.95;1.10;;;14.90;99.90;;;;;;5072547;28;20055;-69
2022/04/08 12:07:23;;;;;;;2.03;1.00;;;14.80;99.90;;;;;;5073450;28;20029;-69
2022/04/08 12:09:49;;;;;;;4.85;1.30;;;14.70;99.90;;;;;;5072742;28;20389;-69
2022/04/08 12:12:25;;;;;;;3.47;0.90;;;14.80;99.90;;;;;;5071996;28;20070;-69
2022/04/08 12:14:52;;;;;;;6.90;1.20;;;14.80;99.90;;;;;;5072139;28;20473;-69
2022/04/08 12:17:17;;;;;;;4.72;1.45;;;14.80;99.90;;;;;;5071811;28;20093;-69
2022/04/08 12:19:43;;;;;;;6.50;1.58;;;14.80;99.90;;;;;;5071827;28;20044;-69
2022/04/08 12:22:14;;;;;;;8.43;1.30;;;14.80;99.90;;;;;;5071811;28;20530;-69
2022/04/08 12:24:44;;;;;;;4.65;1.10;;;14.90;99.90;;;;;;5071909;28;20122;-69
2022/04/08 12:27:20;;;;;;;5.78;0.98;;;15.00;99.90;;;;;;5071891;28;20053;-69
2022/04/08 12:30:00;;;;;;;2.03;1.08;;;15.20;99.90;;;;;;5072073;28;20494;-69
2022/04/08 12:32:34;;;;;;;10.23;1.20;;;15.30;99.90;;;;;;5070883;28;20033;-69
2022/04/08 12:34:59;;;;;;;3.40;1.13;;;15.30;99.90;;;;;;5071538;28;20048;-69
2022/04/08 12:37:25;;;;;;;3.75;0.88;;;15.30;99.90;;;;;;5071950;28;20047;-69
2022/04/08 12:39:51;;;;;;;3.42;1.00;;;15.20;99.90;;;;;;5071427;28;20029;-69
2022/04/08 12:42:17;;;;;;;3.88;0.90;;;15.30;99.90;;;;;;5071442;28;20044;-68
2022/04/08 12:44:42;;;;;;;4.88;1.33;;;15.20;99.90;;;;;;5072233;28;20040;-69
2022/04/08 12:47:10;;;;;;;2.80;0.95;;;15.30;99.90;;;;;;5072052;28;20406;-69
2022/04/08 12:49:36;;;;;;;4.05;1.00;;;15.30;99.90;;;;;;5087071;28;20040;-69
2022/04/08 12:52:02;;;;;;;3.35;1.15;;;15.30;99.90;;;;;;5073437;28;20047;-68
2022/04/08 12:54:27;;;;;;;4.07;0.80;;;15.20;99.90;;;;;;5072973;28;20040;-69
2022/04/08 12:56:53;;;;;;;7.82;0.90;;;15.20;99.90;;;;;;5071701;28;20048;-69
2022/04/08 12:59:19;;;;;;;4.88;1.33;;;15.10;99.90;;;;;;5071213;28;20079;-70
2022/04/08 13:01:45;;;;;;;10.32;1.10;;;15.10;99.90;;;;;;5071423;28;20128;-69
2022/04/08 13:04:11;;;;;;;2.92;1.10;;;14.90;99.90;;;;;;5071139;28;20024;-69